VOCB/CJB METAR and TAF weather

Enter ICAO airport designator
Station Type Date Time Source
VOCB METAR 2022/06/30 14:00 UTC NOAA

VOCB 301400Z 23007G17KT 5000 BR SCT012 BKN080 24/22 Q1007 NOSIG


Station Type Date Time Source
VOCB Decoded METAR 2022/06/30 14:00 UTC NOAA

Coimbatore / Peelamedu, India (VOCB) 11-02N 077-03E 399M
Jun 30, 2022 - 10:00 AM EDT / 2022.06.30 1400 UTC
Wind: from the SW (230 degrees) at 8 MPH (7 KT) gusting to 20 MPH (17 KT):0
Visibility: 3 mile(s):0
Sky conditions: mostly cloudy
Weather: mist
Temperature: 75 F (24 C)
Dew Point: 71 F (22 C)
Relative Humidity: 88%
Pressure (altimeter): 29.74 in. Hg (1007 hPa)
ob: VOCB 301400Z 23007G17KT 5000 BR SCT012 BKN080 24/22 Q1007 NOSIG
cycle: 14

Station Type Date Time Source
VOCB TAF 2022/06/30 12:00 UTC NOAA

TAF VOCB 301100Z 3012/0118 23010KT 6000 FEW015 SCT080
TEMPO 3012/3018 SCT015 FEW020TCU/CB SCT080
BECMG 3015/3016 5000 BR
TEMPO 0100/0103 3000 BR
BECMG 0103/0104 23010G20KT 6000
TEMPO 0109/0115 SCT015 FEW020TCU/CB SCT080
BECMG 0112/0113 23010KT

Example: see airport list